createdAt,value
2023-05-29T00:01:01.000Z,98715.00
2023-05-29T00:03:27.853Z,98721.00
2023-05-29T00:05:54.839Z,98728.00
2023-05-29T00:08:21.614Z,98728.00
2023-05-29T00:10:48.184Z,98721.00
2023-05-29T00:13:14.968Z,98720.00
2023-05-29T00:15:42.142Z,98727.00
2023-05-29T00:18:08.929Z,98722.00
2023-05-29T00:20:35.747Z,98718.00
2023-05-29T00:23:07.061Z,98728.00
2023-05-29T00:25:33.723Z,98725.00
2023-05-29T00:28:00.388Z,98724.00
2023-05-29T00:30:27.036Z,98727.00
2023-05-29T00:32:55.304Z,98722.00
2023-05-29T00:35:22.180Z,98716.00
2023-05-29T00:37:48.924Z,98715.00
2023-05-29T00:40:15.533Z,98712.00
2023-05-29T00:42:42.260Z,98722.00
2023-05-29T00:45:09.200Z,98719.00
2023-05-29T00:47:36.101Z,98717.00
2023-05-29T00:50:03.338Z,98711.00
2023-05-29T00:52:30.342Z,98707.00
2023-05-29T00:54:58.094Z,98708.00
2023-05-29T00:57:25.114Z,98713.00
2023-05-29T00:59:51.946Z,98710.00
2023-05-29T01:02:19.537Z,98714.00
2023-05-29T01:04:46.678Z,98703.00
2023-05-29T01:07:14.933Z,98716.00
2023-05-29T01:09:41.690Z,98706.00
2023-05-29T01:12:46.768Z,98705.00
2023-05-29T01:15:22.821Z,98707.00
2023-05-29T01:18:09.616Z,98708.00
2023-05-29T01:20:42.884Z,98711.00
2023-05-29T01:23:24.240Z,98711.00
2023-05-29T01:26:08.132Z,98707.00
2023-05-29T01:28:43.748Z,98704.00
2023-05-29T01:31:13.769Z,98707.00
2023-05-29T01:33:41.810Z,98700.00
2023-05-29T01:36:12.237Z,98704.00
2023-05-29T01:38:38.970Z,98710.00
2023-05-29T01:41:05.858Z,98706.00
2023-05-29T01:43:33.422Z,98711.00
2023-05-29T01:46:00.422Z,98703.00
2023-05-29T01:48:28.488Z,98704.00
2023-05-29T01:50:57.204Z,98710.00
2023-05-29T01:53:25.111Z,98705.00
2023-05-29T01:55:52.230Z,98707.00
2023-05-29T01:58:20.915Z,98710.00
2023-05-29T02:00:49.146Z,98712.00
2023-05-29T02:03:15.752Z,98712.00
2023-05-29T02:05:42.548Z,98716.00
2023-05-29T02:08:09.083Z,98706.00
2023-05-29T02:10:35.713Z,98696.00
2023-05-29T02:13:02.269Z,98695.00
2023-05-29T02:15:28.900Z,98695.00
2023-05-29T02:17:56.556Z,98699.00
2023-05-29T02:20:23.176Z,98696.00
2023-05-29T02:22:49.751Z,98711.00
2023-05-29T02:25:16.345Z,98709.00
2023-05-29T02:27:43.039Z,98700.00
2023-05-29T02:30:09.771Z,98698.00
2023-05-29T02:32:36.442Z,98696.00
2023-05-29T02:35:06.916Z,98687.00
2023-05-29T02:37:33.449Z,98698.00
2023-05-29T02:39:59.990Z,98695.00
2023-05-29T02:42:26.564Z,98683.00
2023-05-29T02:44:53.108Z,98700.00
2023-05-29T02:47:19.658Z,98697.00
2023-05-29T02:49:46.220Z,98701.00
2023-05-29T02:52:12.778Z,98688.00
2023-05-29T02:54:39.318Z,98685.00
2023-05-29T02:57:06.033Z,98695.00
2023-05-29T02:59:33.200Z,98693.00
2023-05-29T03:02:00.025Z,98699.00
2023-05-29T03:04:27.471Z,98695.00
2023-05-29T03:06:54.391Z,98696.00
2023-05-29T03:09:21.376Z,98689.00
2023-05-29T03:11:51.610Z,98693.00
2023-05-29T03:14:19.813Z,98681.00
2023-05-29T03:16:46.820Z,98681.00
2023-05-29T03:19:13.523Z,98691.00
2023-05-29T03:21:40.264Z,98687.00
2023-05-29T03:24:07.377Z,98684.00
2023-05-29T03:26:37.667Z,98679.00
2023-05-29T03:29:04.709Z,98683.00
2023-05-29T03:31:33.090Z,98692.00
2023-05-29T03:34:00.814Z,98685.00
2023-05-29T03:36:37.496Z,98686.00
2023-05-29T03:39:04.863Z,98685.00
2023-05-29T03:41:31.869Z,98698.00
2023-05-29T03:43:58.906Z,98689.00
2023-05-29T03:46:28.729Z,98698.00
2023-05-29T03:48:55.717Z,98706.00
2023-05-29T03:51:22.346Z,98693.00
2023-05-29T03:53:50.614Z,98698.00
2023-05-29T03:56:18.693Z,98703.00
2023-05-29T03:58:45.704Z,98708.00
2023-05-29T04:01:13.982Z,98717.00
2023-05-29T04:03:40.691Z,98714.00
2023-05-29T04:06:07.889Z,98719.00
2023-05-29T04:08:35.603Z,98720.00
2023-05-29T04:11:04.593Z,98719.00
2023-05-29T04:13:31.233Z,98719.00
2023-05-29T04:15:58.100Z,98720.00
2023-05-29T04:18:24.717Z,98724.00
2023-05-29T04:20:51.644Z,98729.00
2023-05-29T04:23:18.478Z,98722.00
2023-05-29T04:25:45.076Z,98744.00
2023-05-29T04:28:13.997Z,98746.00
2023-05-29T04:30:40.831Z,98740.00
2023-05-29T04:33:08.098Z,98750.00
2023-05-29T04:35:37.355Z,98751.00
2023-05-29T04:38:08.400Z,98754.00
2023-05-29T04:40:35.023Z,98757.00
2023-05-29T04:43:03.621Z,98758.00
2023-05-29T04:45:42.769Z,98759.00
2023-05-29T04:48:09.702Z,98758.00
2023-05-29T04:50:37.780Z,98764.00
2023-05-29T04:53:04.397Z,98764.00
2023-05-29T04:55:30.928Z,98773.00
2023-05-29T04:57:58.092Z,98776.00
2023-05-29T05:00:26.473Z,98778.00
2023-05-29T05:02:53.115Z,98772.00
2023-05-29T05:05:19.882Z,98769.00
2023-05-29T05:07:46.599Z,98768.00
2023-05-29T05:10:14.116Z,98781.00
2023-05-29T05:12:41.059Z,98784.00
2023-05-29T05:15:08.830Z,98784.00
2023-05-29T05:17:36.102Z,98796.00
2023-05-29T05:20:02.740Z,98797.00
2023-05-29T05:22:29.911Z,98800.00
2023-05-29T05:24:57.640Z,98799.00
2023-05-29T05:27:24.881Z,98787.00
2023-05-29T05:29:52.126Z,98796.00
2023-05-29T05:32:19.221Z,98797.00
2023-05-29T05:34:48.319Z,98802.00
2023-05-29T05:37:15.029Z,98787.00
2023-05-29T05:39:43.557Z,98795.00
2023-05-29T05:42:10.492Z,98801.00
2023-05-29T05:44:54.378Z,98800.00
2023-05-29T05:47:21.010Z,98805.00
2023-05-29T05:49:47.570Z,98800.00
2023-05-29T05:52:14.214Z,98801.00
2023-05-29T05:54:40.838Z,98794.00
2023-05-29T05:57:07.489Z,98798.00
2023-05-29T05:59:36.955Z,98809.00
2023-05-29T06:02:07.108Z,98818.00
2023-05-29T06:04:36.710Z,98822.00
2023-05-29T06:07:03.827Z,98818.00
2023-05-29T06:09:30.438Z,98822.00
2023-05-29T06:11:57.041Z,98823.00
2023-05-29T06:14:24.705Z,98830.00
2023-05-29T06:16:51.902Z,98826.00
2023-05-29T06:19:18.499Z,98826.00
2023-05-29T06:21:54.240Z,98818.00
2023-05-29T06:24:21.180Z,98830.00
2023-05-29T06:26:48.333Z,98825.00
2023-05-29T06:29:16.181Z,98829.00
2023-05-29T06:31:42.811Z,98829.00
2023-05-29T06:34:09.428Z,98825.00
2023-05-29T06:36:36.088Z,98835.00
2023-05-29T06:39:02.747Z,98832.00
2023-05-29T06:41:29.399Z,98830.00
2023-05-29T06:43:56.025Z,98834.00
2023-05-29T06:46:22.852Z,98841.00
2023-05-29T06:48:49.566Z,98835.00
2023-05-29T06:51:17.038Z,98829.00
2023-05-29T06:54:12.525Z,98852.00
2023-05-29T06:56:39.257Z,98824.00
2023-05-29T06:59:06.387Z,98834.00
2023-05-29T07:01:33.322Z,98837.00
2023-05-29T07:04:04.629Z,98837.00
2023-05-29T07:06:32.050Z,98848.00
2023-05-29T07:08:59.447Z,98847.00
2023-05-29T07:11:27.338Z,98843.00
2023-05-29T07:13:55.071Z,98847.00
2023-05-29T07:16:25.402Z,98847.00
2023-05-29T07:19:02.436Z,98846.00
2023-05-29T07:21:32.376Z,98848.00
2023-05-29T07:24:00.580Z,98847.00
2023-05-29T07:26:27.481Z,98839.00
2023-05-29T07:28:54.182Z,98845.00
2023-05-29T07:31:20.997Z,98837.00
2023-05-29T07:33:50.089Z,98844.00
2023-05-29T07:36:18.385Z,98849.00
2023-05-29T07:38:46.448Z,98852.00
2023-05-29T07:41:16.895Z,98847.00
2023-05-29T07:43:53.049Z,98859.00
2023-05-29T07:46:20.894Z,98864.00
2023-05-29T07:48:50.208Z,98856.00
2023-05-29T07:51:18.627Z,98858.00
2023-05-29T07:53:47.740Z,98863.00
2023-05-29T07:56:15.051Z,98862.00
2023-05-29T07:58:42.491Z,98860.00
2023-05-29T08:01:09.257Z,98856.00
2023-05-29T08:03:36.926Z,98857.00
2023-05-29T08:06:25.751Z,98856.00
2023-05-29T08:08:53.481Z,98866.00
2023-05-29T08:11:23.485Z,98868.00
2023-05-29T08:13:50.327Z,98871.00
2023-05-29T08:16:18.324Z,98873.00
2023-05-29T08:18:45.006Z,98867.00
2023-05-29T08:21:11.592Z,98868.00
2023-05-29T08:23:38.781Z,98872.00
2023-05-29T08:26:05.332Z,98868.00
2023-05-29T08:28:31.856Z,98869.00
2023-05-29T08:30:58.389Z,98880.00
2023-05-29T08:33:24.866Z,98874.00
2023-05-29T08:35:51.610Z,98877.00
2023-05-29T08:38:18.400Z,98871.00
2023-05-29T08:40:45.212Z,98871.00
2023-05-29T08:43:17.846Z,98871.00
2023-05-29T08:45:45.857Z,98868.00
2023-05-29T08:48:13.064Z,98868.00
2023-05-29T08:50:49.366Z,98863.00
2023-05-29T08:53:17.564Z,98859.00
2023-05-29T08:55:44.553Z,98857.00
2023-05-29T08:58:12.583Z,98862.00
2023-05-29T09:00:39.851Z,98866.00
2023-05-29T09:03:06.389Z,98864.00
2023-05-29T09:05:33.560Z,98868.00
2023-05-29T09:08:00.927Z,98870.00
2023-05-29T09:10:27.545Z,98864.00
2023-05-29T09:12:54.201Z,98869.00
2023-05-29T09:15:23.051Z,98870.00
2023-05-29T09:17:59.297Z,98875.00
2023-05-29T09:20:26.960Z,98867.00
2023-05-29T09:22:55.679Z,98869.00
2023-05-29T09:25:28.217Z,98868.00
2023-05-29T09:27:59.573Z,98864.00
2023-05-29T09:30:50.052Z,98869.00
2023-05-29T09:33:17.234Z,98866.00
2023-05-29T09:35:46.814Z,98865.00
2023-05-29T09:38:37.931Z,98868.00
2023-05-29T09:41:07.264Z,98879.00
2023-05-29T09:43:34.742Z,98881.00
2023-05-29T09:46:02.689Z,98879.00
2023-05-29T09:48:30.239Z,98874.00
2023-05-29T09:50:59.147Z,98883.00
2023-05-29T09:53:26.419Z,98873.00
2023-05-29T09:55:54.224Z,98879.00
2023-05-29T09:58:21.539Z,98876.00
2023-05-29T10:00:49.610Z,98870.00
2023-05-29T10:03:18.133Z,98873.00
2023-05-29T10:05:50.040Z,98880.00
2023-05-29T10:08:19.086Z,98870.00
2023-05-29T10:10:49.877Z,98882.00
2023-05-29T10:13:17.609Z,98873.00
2023-05-29T10:15:46.591Z,98879.00
2023-05-29T10:18:46.874Z,98873.00
2023-05-29T10:21:13.933Z,98875.00
2023-05-29T10:23:46.867Z,98860.00
2023-05-29T10:26:32.132Z,98857.00
2023-05-29T10:29:25.350Z,98870.00
2023-05-29T10:32:13.353Z,98865.00
2023-05-29T10:35:12.525Z,98865.00
2023-05-29T10:37:49.461Z,98867.00
2023-05-29T10:40:17.681Z,98864.00
2023-05-29T10:42:55.607Z,98854.00
2023-05-29T10:45:31.522Z,98855.00
2023-05-29T10:48:07.626Z,98852.00
2023-05-29T10:50:38.065Z,98853.00
2023-05-29T10:53:05.052Z,98845.00
2023-05-29T10:55:36.315Z,98844.00
2023-05-29T10:58:13.189Z,98855.00
2023-05-29T11:00:43.466Z,98864.00
2023-05-29T11:03:11.520Z,98858.00
2023-05-29T11:05:57.655Z,98855.00
2023-05-29T11:08:34.493Z,98861.00
2023-05-29T11:11:01.184Z,98862.00
2023-05-29T11:13:36.209Z,98856.00
2023-05-29T11:16:07.504Z,98856.00
2023-05-29T11:18:43.339Z,98863.00
2023-05-29T11:21:33.017Z,98845.00
2023-05-29T11:24:06.784Z,98851.00
2023-05-29T11:26:37.531Z,98858.00
2023-05-29T11:29:06.912Z,98857.00
2023-05-29T11:31:35.988Z,98856.00
2023-05-29T11:34:05.764Z,98858.00
2023-05-29T11:36:36.045Z,98850.00
2023-05-29T11:39:03.519Z,98862.00
2023-05-29T11:41:30.642Z,98866.00
2023-05-29T11:44:03.073Z,98861.00
2023-05-29T11:46:33.393Z,98859.00
2023-05-29T11:49:00.818Z,98863.00
2023-05-29T11:51:28.253Z,98857.00
2023-05-29T11:53:59.098Z,98870.00
2023-05-29T11:56:27.389Z,98869.00
2023-05-29T11:58:57.634Z,98863.00
2023-05-29T12:01:25.906Z,98856.00
2023-05-29T12:03:53.504Z,98861.00
2023-05-29T12:06:38.534Z,98863.00
2023-05-29T12:09:06.095Z,98863.00
2023-05-29T12:11:32.899Z,98855.00
2023-05-29T12:14:03.458Z,98846.00
2023-05-29T12:16:32.738Z,98850.00
2023-05-29T12:18:59.415Z,98849.00
2023-05-29T12:21:28.081Z,98852.00
2023-05-29T12:24:06.477Z,98860.00
2023-05-29T12:26:40.520Z,98852.00
2023-05-29T12:29:07.080Z,98859.00
2023-05-29T12:31:35.087Z,98857.00
2023-05-29T12:34:08.597Z,98861.00
2023-05-29T12:36:35.230Z,98852.00
2023-05-29T12:39:07.389Z,98854.00
2023-05-29T12:41:39.995Z,98853.00
2023-05-29T12:44:07.633Z,98857.00
2023-05-29T12:46:44.612Z,98848.00
2023-05-29T12:49:22.216Z,98850.00
2023-05-29T12:51:49.075Z,98857.00
2023-05-29T12:54:17.340Z,98847.00
2023-05-29T12:56:44.250Z,98844.00
2023-05-29T12:59:11.767Z,98835.00
2023-05-29T13:01:39.702Z,98844.00
2023-05-29T13:04:09.567Z,98855.00
2023-05-29T13:06:38.103Z,98847.00
2023-05-29T13:09:06.201Z,98848.00
2023-05-29T13:11:33.250Z,98848.00
2023-05-29T13:13:59.828Z,98853.00
2023-05-29T13:16:26.416Z,98831.00
2023-05-29T13:18:53.142Z,98843.00
2023-05-29T13:21:19.665Z,98841.00
2023-05-29T13:23:46.228Z,98841.00
2023-05-29T13:26:12.846Z,98846.00
2023-05-29T13:28:39.507Z,98847.00
2023-05-29T13:31:06.149Z,98840.00
2023-05-29T13:33:32.687Z,98834.00
2023-05-29T13:35:59.396Z,98836.00
2023-05-29T13:38:26.120Z,98830.00
2023-05-29T13:40:52.726Z,98840.00
2023-05-29T13:43:20.910Z,98836.00
2023-05-29T13:45:49.257Z,98833.00
2023-05-29T13:48:15.898Z,98826.00
2023-05-29T13:50:42.602Z,98826.00
2023-05-29T13:53:09.179Z,98836.00
2023-05-29T13:55:35.853Z,98826.00
2023-05-29T13:58:02.416Z,98831.00
2023-05-29T14:00:29.065Z,98826.00
2023-05-29T14:02:55.798Z,98821.00
2023-05-29T14:05:22.588Z,98823.00
2023-05-29T14:07:49.122Z,98827.00
2023-05-29T14:10:16.040Z,98819.00
2023-05-29T14:12:42.624Z,98822.00
2023-05-29T14:15:10.116Z,98828.00
2023-05-29T14:17:36.906Z,98826.00
2023-05-29T14:20:05.890Z,98821.00
2023-05-29T14:22:33.014Z,98815.00
2023-05-29T14:25:01.188Z,98820.00
2023-05-29T14:27:27.908Z,98822.00
2023-05-29T14:29:54.521Z,98817.00
2023-05-29T14:32:21.760Z,98817.00
2023-05-29T14:34:48.422Z,98812.00
2023-05-29T14:37:15.025Z,98820.00
2023-05-29T14:39:41.567Z,98808.00
2023-05-29T14:42:08.788Z,98800.00
2023-05-29T14:44:35.356Z,98812.00
2023-05-29T14:47:02.341Z,98807.00
2023-05-29T14:49:35.528Z,98816.00
2023-05-29T14:52:04.185Z,98817.00
2023-05-29T14:54:31.247Z,98813.00
2023-05-29T14:56:58.731Z,98817.00
2023-05-29T14:59:26.360Z,98805.00
2023-05-29T15:01:54.791Z,98818.00
2023-05-29T15:04:21.355Z,98812.00
2023-05-29T15:06:55.394Z,98813.00
2023-05-29T15:09:29.904Z,98811.00
2023-05-29T15:11:56.683Z,98806.00
2023-05-29T15:14:23.240Z,98815.00
2023-05-29T15:16:50.032Z,98816.00
2023-05-29T15:19:16.817Z,98811.00
2023-05-29T15:21:43.389Z,98820.00
2023-05-29T15:24:10.002Z,98805.00
2023-05-29T15:26:37.925Z,98809.00
2023-05-29T15:29:04.519Z,98803.00
2023-05-29T15:31:31.388Z,98806.00
2023-05-29T15:33:58.140Z,98798.00
2023-05-29T15:36:24.838Z,98792.00
2023-05-29T15:38:51.629Z,98812.00
2023-05-29T15:41:18.222Z,98795.00
2023-05-29T15:43:44.760Z,98794.00
2023-05-29T15:46:11.404Z,98796.00
2023-05-29T15:48:38.163Z,98798.00
2023-05-29T15:51:04.760Z,98800.00
2023-05-29T15:53:31.302Z,98787.00
2023-05-29T15:55:58.030Z,98795.00
2023-05-29T15:58:25.330Z,98802.00
2023-05-29T16:00:51.944Z,98797.00
2023-05-29T16:03:18.590Z,98785.00
2023-05-29T16:05:45.361Z,98792.00
2023-05-29T16:08:11.955Z,98796.00
2023-05-29T16:10:41.776Z,98791.00
2023-05-29T16:13:08.472Z,98788.00
2023-05-29T16:15:35.062Z,98785.00
2023-05-29T16:18:02.205Z,98781.00
2023-05-29T16:20:28.841Z,98791.00
2023-05-29T16:22:57.006Z,98792.00
2023-05-29T16:25:23.904Z,98783.00
2023-05-29T16:27:50.689Z,98780.00
2023-05-29T16:30:17.336Z,98776.00
2023-05-29T16:32:44.004Z,98792.00
2023-05-29T16:35:11.132Z,98785.00
2023-05-29T16:37:38.105Z,98792.00
2023-05-29T16:40:05.207Z,98785.00
2023-05-29T16:42:31.963Z,98799.00
2023-05-29T16:44:58.503Z,98784.00
2023-05-29T16:47:25.386Z,98783.00
2023-05-29T16:49:52.196Z,98793.00
2023-05-29T16:52:21.023Z,98785.00
2023-05-29T16:54:48.974Z,98787.00
2023-05-29T16:57:16.773Z,98783.00
2023-05-29T16:59:43.318Z,98780.00
2023-05-29T17:02:09.924Z,98791.00
2023-05-29T17:04:37.112Z,98786.00
2023-05-29T17:07:04.370Z,98783.00
2023-05-29T17:09:31.356Z,98785.00
2023-05-29T17:11:58.385Z,98792.00
2023-05-29T17:14:25.287Z,98791.00
2023-05-29T17:16:52.445Z,98781.00
2023-05-29T17:19:19.517Z,98786.00
2023-05-29T17:21:48.112Z,98794.00
2023-05-29T17:24:15.899Z,98791.00
2023-05-29T17:26:42.626Z,98795.00
2023-05-29T17:29:09.385Z,98797.00
2023-05-29T17:31:36.471Z,98800.00
2023-05-29T17:34:03.046Z,98794.00
2023-05-29T17:36:29.628Z,98794.00
2023-05-29T17:38:56.173Z,98794.00
2023-05-29T17:41:22.803Z,98798.00
2023-05-29T17:43:49.425Z,98803.00
2023-05-29T17:46:19.455Z,98805.00
2023-05-29T17:48:49.303Z,98804.00
2023-05-29T17:51:17.107Z,98798.00
2023-05-29T17:53:44.336Z,98807.00
2023-05-29T17:56:10.957Z,98804.00
2023-05-29T17:58:37.677Z,98810.00
2023-05-29T18:01:04.467Z,98811.00
2023-05-29T18:03:31.179Z,98817.00
2023-05-29T18:05:58.172Z,98813.00
2023-05-29T18:08:24.949Z,98826.00
2023-05-29T18:10:51.905Z,98832.00
2023-05-29T18:13:18.583Z,98830.00
2023-05-29T18:15:45.227Z,98839.00
2023-05-29T18:18:12.244Z,98836.00
2023-05-29T18:20:38.962Z,98834.00
2023-05-29T18:23:05.571Z,98845.00
2023-05-29T18:25:32.964Z,98848.00
2023-05-29T18:28:00.108Z,98840.00
2023-05-29T18:30:26.678Z,98838.00
2023-05-29T18:32:54.761Z,98836.00
2023-05-29T18:35:21.447Z,98832.00
2023-05-29T18:37:49.124Z,98835.00
2023-05-29T18:40:16.849Z,98834.00
2023-05-29T18:42:43.404Z,98838.00
2023-05-29T18:45:10.602Z,98834.00
2023-05-29T18:47:37.258Z,98834.00
2023-05-29T18:50:04.080Z,98835.00
2023-05-29T18:52:30.893Z,98840.00
2023-05-29T18:54:57.483Z,98842.00
2023-05-29T18:57:24.080Z,98847.00
2023-05-29T18:59:54.207Z,98845.00
2023-05-29T19:02:20.908Z,98841.00
2023-05-29T19:04:47.457Z,98848.00
2023-05-29T19:07:15.037Z,98853.00
2023-05-29T19:09:43.128Z,98846.00
2023-05-29T19:12:10.548Z,98854.00
2023-05-29T19:14:37.457Z,98854.00
2023-05-29T19:17:08.349Z,98861.00
2023-05-29T19:19:40.278Z,98857.00
2023-05-29T19:22:07.461Z,98862.00
2023-05-29T19:24:34.205Z,98868.00
2023-05-29T19:27:00.858Z,98870.00
2023-05-29T19:29:27.403Z,98871.00
2023-05-29T19:31:54.009Z,98874.00
2023-05-29T19:34:20.620Z,98874.00
2023-05-29T19:36:47.296Z,98879.00
2023-05-29T19:39:13.774Z,98878.00
2023-05-29T19:41:41.845Z,98885.00
2023-05-29T19:44:09.290Z,98888.00
2023-05-29T19:46:39.977Z,98892.00
2023-05-29T19:49:06.821Z,98894.00
2023-05-29T19:51:34.297Z,98899.00
2023-05-29T19:54:01.284Z,98899.00
2023-05-29T19:56:29.326Z,98902.00
2023-05-29T19:58:56.239Z,98914.00
2023-05-29T20:01:23.251Z,98909.00
2023-05-29T20:03:50.567Z,98913.00
2023-05-29T20:06:18.372Z,98921.00
2023-05-29T20:08:45.105Z,98923.00
2023-05-29T20:11:11.770Z,98924.00
2023-05-29T20:13:38.334Z,98927.00
2023-05-29T20:16:05.096Z,98926.00
2023-05-29T20:18:32.888Z,98938.00
2023-05-29T20:20:59.874Z,98942.00
2023-05-29T20:23:26.825Z,98944.00
2023-05-29T20:25:53.326Z,98945.00
2023-05-29T20:28:21.591Z,98944.00
2023-05-29T20:30:48.459Z,98946.00
2023-05-29T20:33:15.087Z,98937.00
2023-05-29T20:35:42.609Z,98948.00
2023-05-29T20:38:09.213Z,98949.00
2023-05-29T20:40:37.289Z,98949.00
2023-05-29T20:43:07.349Z,98948.00
2023-05-29T20:45:34.482Z,98944.00
2023-05-29T20:48:01.278Z,98956.00
2023-05-29T20:50:28.181Z,98952.00
2023-05-29T20:52:55.193Z,98951.00
2023-05-29T20:55:22.127Z,98956.00
2023-05-29T20:57:48.756Z,98952.00
2023-05-29T21:00:15.677Z,98950.00
2023-05-29T21:02:43.022Z,98957.00
2023-05-29T21:05:10.469Z,98963.00
2023-05-29T21:07:38.319Z,98962.00
2023-05-29T21:10:06.461Z,98963.00
2023-05-29T21:12:33.689Z,98960.00
2023-05-29T21:15:01.706Z,98960.00
2023-05-29T21:17:28.662Z,98960.00
2023-05-29T21:19:55.664Z,98959.00
2023-05-29T21:22:22.848Z,98960.00
2023-05-29T21:24:49.387Z,98963.00
2023-05-29T21:27:16.626Z,98972.00
2023-05-29T21:29:43.294Z,98967.00
2023-05-29T21:32:10.244Z,98961.00
2023-05-29T21:34:36.829Z,98967.00
2023-05-29T21:37:04.973Z,98966.00
2023-05-29T21:39:31.782Z,98965.00
2023-05-29T21:41:58.450Z,98968.00
2023-05-29T21:44:26.943Z,98963.00
2023-05-29T21:46:53.507Z,98974.00
2023-05-29T21:49:20.118Z,98967.00
2023-05-29T21:51:46.777Z,98967.00
2023-05-29T21:54:13.273Z,98970.00
2023-05-29T21:56:39.993Z,98978.00
2023-05-29T21:59:07.583Z,98969.00
2023-05-29T22:01:34.352Z,98973.00
2023-05-29T22:04:02.387Z,98981.00
2023-05-29T22:06:30.611Z,98966.00
2023-05-29T22:08:57.224Z,98969.00
2023-05-29T22:11:27.004Z,98981.00
2023-05-29T22:13:54.191Z,98980.00
2023-05-29T22:16:20.839Z,98987.00
2023-05-29T22:19:03.867Z,98984.00
2023-05-29T22:21:33.416Z,98981.00
2023-05-29T22:24:02.494Z,98977.00
2023-05-29T22:26:30.249Z,98979.00
2023-05-29T22:28:57.130Z,98987.00
2023-05-29T22:31:24.237Z,98988.00
2023-05-29T22:33:51.455Z,98994.00
2023-05-29T22:36:19.177Z,98992.00
2023-05-29T22:38:46.194Z,99000.00
2023-05-29T22:41:12.826Z,99020.00
2023-05-29T22:43:39.931Z,99007.00
2023-05-29T22:46:07.110Z,99001.00
2023-05-29T22:48:34.257Z,99005.00
2023-05-29T22:51:04.950Z,99005.00
2023-05-29T22:53:33.948Z,99001.00
2023-05-29T22:56:01.415Z,98999.00
2023-05-29T22:58:28.179Z,99004.00
2023-05-29T23:00:54.964Z,99010.00
2023-05-29T23:03:22.075Z,99007.00
2023-05-29T23:05:49.945Z,99004.00
2023-05-29T23:08:16.591Z,99018.00
2023-05-29T23:10:43.396Z,99015.00
2023-05-29T23:13:09.936Z,99015.00
2023-05-29T23:15:36.531Z,99023.00
2023-05-29T23:18:03.923Z,99022.00
2023-05-29T23:20:30.589Z,99021.00
2023-05-29T23:22:57.272Z,99022.00
2023-05-29T23:25:25.385Z,99025.00
2023-05-29T23:27:52.247Z,99014.00
2023-05-29T23:30:18.968Z,99023.00
2023-05-29T23:32:45.734Z,99030.00
2023-05-29T23:35:12.418Z,99027.00
2023-05-29T23:37:38.936Z,99036.00
2023-05-29T23:40:06.540Z,99034.00
2023-05-29T23:42:33.157Z,99047.00
2023-05-29T23:44:59.675Z,99039.00
2023-05-29T23:47:26.544Z,99037.00
2023-05-29T23:49:53.129Z,99052.00
2023-05-29T23:52:19.658Z,99034.00
2023-05-29T23:54:46.226Z,99051.00
2023-05-29T23:57:12.893Z,99056.00
2023-05-29T23:59:40.329Z,99041.00
